Time;durP1;ratioP1;P1;durP2;ratioP2;P2;SDS_P1;SDS_P2;PMS_P1;PMS_P2;Temp;Humidity;BMP_temperature;BMP_pressure;BME280_temperature;BME280_humidity;BME280_pressure;Samples;Min_cycle;Max_cycle;Signal;HPM_P1;HPM_P2
2022/12/11 00:00:21;;;;;;;19.73;12.77;;;-1.60;69.70;;;;;;4989496;28;20539;-51
2022/12/11 00:02:47;;;;;;;13.47;11.00;;;-1.60;70.70;;;;;;4989806;28;20465;-50
2022/12/11 00:05:15;;;;;;;17.73;12.43;;;-1.60;70.30;;;;;;4987007;28;20591;-50
2022/12/11 00:07:42;;;;;;;15.87;12.13;;;-1.70;75.50;;;;;;4989424;28;20555;-50
2022/12/11 00:10:09;;;;;;;15.53;11.87;;;-1.60;74.20;;;;;;4986629;28;20453;-51
2022/12/11 00:12:35;;;;;;;17.00;12.17;;;-1.70;73.40;;;;;;4980396;28;20475;-51
2022/12/11 00:15:02;;;;;;;16.10;12.03;;;-1.70;67.90;;;;;;4989739;28;20507;-51
2022/12/11 00:17:28;;;;;;;16.60;12.70;;;-1.70;68.60;;;;;;4981897;28;20551;-50
2022/12/11 00:19:55;;;;;;;13.97;11.57;;;-1.70;67.20;;;;;;4989205;28;20560;-51
2022/12/11 00:22:23;;;;;;;17.17;11.73;;;-1.70;65.70;;;;;;4996234;28;20560;-50
2022/12/11 00:24:49;;;;;;;16.27;11.30;;;-1.70;69.10;;;;;;4995264;28;21069;-51
2022/12/11 00:27:16;;;;;;;14.77;12.87;;;-1.70;65.90;;;;;;4993807;28;20551;-51
2022/12/11 00:29:43;;;;;;;18.97;13.47;;;-1.70;69.60;;;;;;4987973;28;20483;-52
2022/12/11 00:32:09;;;;;;;15.43;11.90;;;-1.60;68.00;;;;;;4995229;28;20444;-52
2022/12/11 00:34:36;;;;;;;13.80;12.30;;;-1.70;66.20;;;;;;4995354;28;20571;-51
2022/12/11 00:37:02;;;;;;;16.43;12.57;;;-1.70;68.50;;;;;;4993547;28;20512;-50
2022/12/11 00:39:30;;;;;;;14.40;12.40;;;-1.70;63.10;;;;;;5004827;28;22133;-51
2022/12/11 00:41:57;;;;;;;68.77;30.63;;;-1.70;62.20;;;;;;4985777;28;20531;-52
2022/12/11 00:44:23;;;;;;;101.93;41.47;;;-1.70;64.20;;;;;;4990232;28;20853;-51
2022/12/11 00:46:50;;;;;;;54.90;26.30;;;-1.70;64.60;;;;;;4993917;28;20527;-51
2022/12/11 00:49:16;;;;;;;18.73;12.90;;;-1.70;62.60;;;;;;4994792;28;20551;-51
2022/12/11 00:51:43;;;;;;;16.70;12.97;;;-1.80;65.10;;;;;;4994307;28;20496;-50
2022/12/11 00:54:09;;;;;;;15.77;13.03;;;-1.80;63.70;;;;;;4984668;28;20521;-55
2022/12/11 00:56:37;;;;;;;24.00;16.17;;;-1.80;62.70;;;;;;5005285;28;20494;-51
2022/12/11 00:59:04;;;;;;;31.30;19.40;;;-1.80;59.30;;;;;;4987728;28;20548;-51
2022/12/11 01:01:30;;;;;;;24.67;15.30;;;-1.80;58.20;;;;;;4993968;28;20467;-50
2022/12/11 01:03:57;;;;;;;19.60;14.37;;;-1.80;62.20;;;;;;4993552;28;20460;-51
2022/12/11 01:06:25;;;;;;;24.80;16.70;;;-1.80;59.00;;;;;;4994242;28;20488;-52
2022/12/11 01:10:22;;;;;;;28.87;19.37;;;-1.70;56.20;;;;;;4989638;28;20883;-51
2022/12/11 01:11:41;;;;;;;27.53;19.20;;;-1.70;57.90;;;;;;5002651;28;20463;-51
2022/12/11 01:14:08;;;;;;;24.37;17.57;;;-1.70;59.50;;;;;;4997274;28;20519;-51
2022/12/11 01:16:35;;;;;;;16.70;13.70;;;-1.70;56.50;;;;;;4987324;28;21064;-51
2022/12/11 01:19:02;;;;;;;15.40;13.20;;;-1.70;59.80;;;;;;4993399;28;20556;-51
2022/12/11 01:21:29;;;;;;;15.50;13.20;;;-1.80;63.30;;;;;;4993139;28;20962;-51
2022/12/11 01:23:55;;;;;;;15.57;11.80;;;-1.80;59.40;;;;;;4991957;28;20492;-51
2022/12/11 01:26:22;;;;;;;17.50;12.53;;;-1.80;58.90;;;;;;4992696;28;20501;-52
2022/12/11 01:28:51;;;;;;;16.00;11.97;;;-1.70;56.00;;;;;;4990987;28;20599;-52
2022/12/11 01:31:19;;;;;;;17.33;12.13;;;-1.70;58.00;;;;;;4988326;28;20465;-52
2022/12/11 01:33:46;;;;;;;16.87;12.47;;;-1.70;59.60;;;;;;4984753;28;20501;-51
2022/12/11 01:36:15;;;;;;;15.63;11.80;;;-1.70;57.30;;;;;;4989345;28;20527;-51
2022/12/11 01:38:42;;;;;;;16.10;13.10;;;-1.80;58.10;;;;;;4989194;28;20515;-51
2022/12/11 01:41:09;;;;;;;16.93;11.93;;;-1.70;55.30;;;;;;4990926;28;21142;-51
2022/12/11 01:43:55;;;;;;;13.37;11.43;;;-1.70;51.80;;;;;;4990736;28;20492;-50
2022/12/11 01:46:23;;;;;;;13.67;12.27;;;-1.70;54.30;;;;;;4998390;28;20896;-54
2022/12/11 01:48:49;;;;;;;17.73;12.60;;;-1.70;54.40;;;;;;4993456;28;20903;-54
2022/12/11 01:51:16;;;;;;;17.20;11.50;;;-1.70;52.80;;;;;;4990600;28;20903;-54
2022/12/11 01:53:48;;;;;;;15.90;11.90;;;-1.60;51.80;;;;;;4992091;28;20547;-53
2022/12/11 01:56:15;;;;;;;16.70;11.57;;;-1.70;52.60;;;;;;4983739;28;20544;-54
2022/12/11 01:58:47;;;;;;;15.10;11.40;;;-1.60;50.00;;;;;;4982256;28;20560;-55
2022/12/11 02:01:21;;;;;;;17.40;11.60;;;-1.70;56.10;;;;;;4992315;28;20552;-55
2022/12/11 02:07:17;;;;;;;14.80;12.40;;;-1.70;50.90;;;;;;4984954;28;20430;-55
2022/12/11 02:09:46;;;;;;;19.40;13.53;;;-1.70;47.80;;;;;;4987072;28;20584;-55
2022/12/11 02:12:20;;;;;;;14.50;11.70;;;-1.70;51.60;;;;;;4990649;28;20519;-55
2022/12/11 02:14:55;;;;;;;15.70;12.40;;;-1.70;57.20;;;;;;4990677;28;20528;-55
2022/12/11 02:17:26;;;;;;;15.90;12.00;;;-1.70;50.00;;;;;;4987650;28;20470;-54
2022/12/11 02:20:02;;;;;;;18.30;12.60;;;-1.70;52.10;;;;;;4987148;28;20492;-55
2022/12/11 02:22:54;;;;;;;16.60;12.90;;;-1.60;45.70;;;;;;4990085;28;20472;-50
2022/12/11 02:25:27;;;;;;;14.20;12.33;;;-1.60;46.80;;;;;;4992219;28;20476;-51
2022/12/11 02:28:06;;;;;;;15.93;12.40;;;-1.60;49.00;;;;;;4990174;28;20471;-51
2022/12/11 02:30:36;;;;;;;19.07;12.90;;;-1.70;50.10;;;;;;4987168;28;20488;-51
2022/12/11 02:33:03;;;;;;;14.67;12.10;;;-1.70;51.10;;;;;;4986078;28;20500;-52
2022/12/11 02:35:35;;;;;;;17.23;11.97;;;-1.70;41.10;;;;;;4989237;28;20509;-52
2022/12/11 02:38:07;;;;;;;17.57;11.90;;;-1.70;41.00;;;;;;4991728;28;20864;-53
2022/12/11 02:40:38;;;;;;;16.83;13.30;;;-1.60;41.10;;;;;;4991109;28;21009;-51
2022/12/11 02:43:09;;;;;;;16.97;13.63;;;-1.60;44.90;;;;;;4990966;28;20974;-51
2022/12/11 02:45:38;;;;;;;22.43;15.10;;;-1.60;43.00;;;;;;4993970;28;20521;-52
2022/12/11 02:48:08;;;;;;;17.87;12.80;;;-1.60;42.70;;;;;;4988625;28;20864;-52
2022/12/11 02:50:38;;;;;;;16.27;13.10;;;-1.60;41.70;;;;;;4995382;28;20453;-51
2022/12/11 02:53:07;;;;;;;19.87;13.20;;;-1.60;43.20;;;;;;4990019;28;20988;-51
2022/12/11 02:55:36;;;;;;;14.90;13.23;;;-1.60;42.20;;;;;;4988543;28;20528;-51
2022/12/11 02:58:08;;;;;;;16.50;11.77;;;-1.60;39.30;;;;;;4987978;28;20499;-51
2022/12/11 03:00:35;;;;;;;19.87;14.20;;;-1.60;42.50;;;;;;4987805;28;20492;-52
2022/12/11 03:03:02;;;;;;;17.13;13.93;;;-1.60;40.90;;;;;;4991328;28;20572;-51
2022/12/11 03:05:29;;;;;;;17.40;12.60;;;-1.60;40.80;;;;;;4984884;28;20518;-52
2022/12/11 03:07:56;;;;;;;16.17;12.37;;;-1.60;40.20;;;;;;4985510;28;20497;-51
2022/12/11 03:10:23;;;;;;;17.63;13.23;;;-1.60;40.40;;;;;;4980219;28;20493;-52
2022/12/11 03:12:52;;;;;;;14.93;12.10;;;-1.60;41.00;;;;;;4992836;28;20480;-52
2022/12/11 03:15:22;;;;;;;16.63;12.30;;;-1.60;38.70;;;;;;4988485;28;20488;-51
2022/12/11 03:17:59;;;;;;;15.80;12.77;;;-1.70;40.50;;;;;;4989910;28;20470;-52
2022/12/11 03:20:36;;;;;;;15.13;12.43;;;-1.70;35.50;;;;;;4990639;28;20826;-52
2022/12/11 03:23:12;;;;;;;18.47;12.47;;;-1.70;37.10;;;;;;4992502;28;20873;-52
2022/12/11 03:25:46;;;;;;;18.90;13.67;;;-1.70;38.30;;;;;;4989152;28;20919;-52
2022/12/11 03:28:18;;;;;;;15.50;12.20;;;-1.70;36.10;;;;;;4990110;28;20508;-52
2022/12/11 03:30:49;;;;;;;17.27;12.93;;;-1.60;37.10;;;;;;4992676;28;20750;-51
2022/12/11 03:33:23;;;;;;;16.80;12.80;;;-1.60;37.80;;;;;;4988727;28;20507;-52
2022/12/11 03:35:55;;;;;;;17.50;12.37;;;-1.60;39.90;;;;;;4995083;28;20495;-51
2022/12/11 03:38:26;;;;;;;18.30;12.80;;;-1.70;39.90;;;;;;4987585;28;20841;-55
2022/12/11 03:40:57;;;;;;;19.53;13.07;;;-1.70;37.40;;;;;;4989215;28;20503;-55
2022/12/11 03:43:24;;;;;;;15.90;12.83;;;-1.70;36.70;;;;;;4983063;28;20457;-55
2022/12/11 03:45:53;;;;;;;15.67;12.63;;;-1.70;35.10;;;;;;4990179;28;20481;-55
2022/12/11 03:48:22;;;;;;;20.27;13.07;;;-1.70;35.90;;;;;;4990455;28;20496;-54
2022/12/11 03:50:49;;;;;;;15.53;12.00;;;-1.70;32.30;;;;;;4984164;28;20552;-54
2022/12/11 03:53:17;;;;;;;16.67;13.17;;;-1.70;31.30;;;;;;4986796;28;20499;-55
2022/12/11 03:55:46;;;;;;;16.37;12.63;;;-1.60;30.80;;;;;;4985067;28;20520;-55
2022/12/11 03:58:12;;;;;;;16.50;13.50;;;-1.60;30.50;;;;;;4990110;28;20958;-55
2022/12/11 04:00:39;;;;;;;16.43;12.07;;;-1.60;29.90;;;;;;4993103;28;20499;-55
2022/12/11 04:03:13;;;;;;;18.67;12.30;;;-1.60;30.30;;;;;;4994592;28;20495;-55
2022/12/11 04:05:40;;;;;;;14.60;12.53;;;-1.60;32.00;;;;;;4993495;28;20495;-55
2022/12/11 04:08:06;;;;;;;18.07;12.70;;;-1.60;31.10;;;;;;4999024;28;20460;-55
2022/12/11 04:10:33;;;;;;;16.93;13.00;;;-1.60;35.00;;;;;;4994612;28;20496;-54
2022/12/11 04:12:59;;;;;;;17.07;12.13;;;-1.70;34.60;;;;;;4993964;28;20503;-54
2022/12/11 04:15:25;;;;;;;14.20;11.23;;;-1.70;32.50;;;;;;5014949;23;20547;-50
2022/12/11 04:26:07;;;;;;;15.90;11.40;;;-1.60;25.90;;;;;;5011500;28;20479;-52
2022/12/11 04:28:33;;;;;;;15.70;12.50;;;-1.70;30.80;;;;;;5010002;28;20498;-52
2022/12/11 04:31:00;;;;;;;17.27;13.23;;;-1.70;33.20;;;;;;5009193;28;20884;-50
2022/12/11 04:33:27;;;;;;;18.27;14.20;;;-1.70;32.00;;;;;;5007244;28;20873;-51
2022/12/11 04:35:57;;;;;;;21.00;14.73;;;-1.70;31.60;;;;;;5012173;28;20954;-52
2022/12/11 04:38:24;;;;;;;29.70;18.33;;;-1.70;30.30;;;;;;5008356;28;20495;-51
2022/12/11 04:40:57;;;;;;;28.03;17.77;;;-1.60;32.40;;;;;;5014980;28;20865;-51
2022/12/11 04:43:24;;;;;;;25.83;16.90;;;-1.60;34.30;;;;;;5012793;28;20499;-51
2022/12/11 04:45:50;;;;;;;23.50;15.37;;;-1.70;36.60;;;;;;5013060;28;20515;-52
2022/12/11 04:48:17;;;;;;;21.30;16.20;;;-1.60;35.00;;;;;;5013697;28;21062;-51
2022/12/11 04:50:44;;;;;;;23.90;15.10;;;-1.60;37.30;;;;;;5012459;28;20563;-51
2022/12/11 04:53:12;;;;;;;17.60;13.50;;;-1.70;42.80;;;;;;5010471;28;20491;-51
2022/12/11 04:55:39;;;;;;;19.23;12.10;;;-1.70;46.90;;;;;;5012369;28;20523;-51
2022/12/11 04:58:05;;;;;;;15.13;11.80;;;-1.80;45.60;;;;;;5013703;28;20471;-50
2022/12/11 05:00:32;;;;;;;17.73;11.80;;;-1.80;46.70;;;;;;5010630;28;20498;-52
2022/12/11 05:02:58;;;;;;;16.27;10.70;;;-1.80;50.20;;;;;;5011480;28;20901;-50
2022/12/11 05:05:25;;;;;;;15.70;12.10;;;-1.80;46.20;;;;;;5013181;28;20507;-50
2022/12/11 05:07:52;;;;;;;15.60;10.40;;;-1.80;45.60;;;;;;5013369;28;20518;-50
2022/12/11 05:10:19;;;;;;;17.63;10.43;;;-1.80;48.60;;;;;;5022189;28;20498;-51
2022/12/11 05:12:46;;;;;;;12.90;9.70;;;-1.80;46.90;;;;;;5024827;28;20506;-50
2022/12/11 05:15:12;;;;;;;16.40;10.80;;;-1.90;51.00;;;;;;5012147;28;20649;-50
2022/12/11 05:17:39;;;;;;;13.77;10.40;;;-1.90;55.50;;;;;;5011607;28;20921;-50
2022/12/11 05:20:07;;;;;;;11.63;10.33;;;-1.90;51.60;;;;;;5011835;28;21051;-51
2022/12/11 05:22:33;;;;;;;13.87;10.73;;;-1.90;52.70;;;;;;5011151;28;20998;-51
2022/12/11 05:25:00;;;;;;;15.80;10.13;;;-1.90;53.40;;;;;;5010924;28;20511;-51
2022/12/11 05:27:28;;;;;;;13.00;10.33;;;-1.90;49.80;;;;;;5005219;28;20492;-51
2022/12/11 05:29:54;;;;;;;14.20;10.70;;;-1.90;50.60;;;;;;5012917;28;20590;-51
2022/12/11 05:32:21;;;;;;;12.30;9.67;;;-2.00;54.30;;;;;;5011624;28;20499;-51
2022/12/11 05:34:48;;;;;;;16.17;10.67;;;-2.00;57.20;;;;;;5010052;28;20522;-51
2022/12/11 05:37:14;;;;;;;13.23;10.13;;;-2.00;58.40;;;;;;5007455;28;20506;-51
2022/12/11 05:39:41;;;;;;;10.83;9.40;;;-2.10;68.80;;;;;;5011296;28;20499;-51
2022/12/11 05:42:07;;;;;;;12.07;10.13;;;-2.10;71.80;;;;;;5011029;28;20518;-51
2022/12/11 05:44:35;;;;;;;11.07;9.97;;;-2.00;71.30;;;;;;5014750;28;20513;-51
2022/12/11 05:47:01;;;;;;;11.20;9.10;;;-2.10;81.80;;;;;;5011205;28;20871;-51
2022/12/11 05:49:28;;;;;;;14.90;9.20;;;-2.10;81.80;;;;;;5011792;28;20518;-51
2022/12/11 05:51:55;;;;;;;10.40;9.27;;;-2.10;83.50;;;;;;5011265;28;20506;-51
2022/12/11 05:54:21;;;;;;;13.27;9.90;;;-2.20;88.30;;;;;;5011241;28;21005;-51
2022/12/11 05:56:49;;;;;;;10.70;8.70;;;-2.20;92.10;;;;;;5009840;28;20518;-51
2022/12/11 05:59:17;;;;;;;11.10;9.30;;;-2.20;96.90;;;;;;5008536;28;20459;-51
2022/12/11 06:01:45;;;;;;;10.13;9.00;;;-2.20;97.80;;;;;;5010539;28;20468;-51
2022/12/11 06:04:12;;;;;;;9.57;8.53;;;-2.20;96.20;;;;;;5009135;28;20508;-50
2022/12/11 06:06:39;;;;;;;11.97;9.00;;;-2.30;99.90;;;;;;5010997;28;20502;-50
2022/12/11 06:09:06;;;;;;;11.33;8.77;;;-2.30;99.90;;;;;;5013560;28;20454;-51
2022/12/11 06:11:35;;;;;;;11.80;8.90;;;-2.30;99.90;;;;;;5011827;28;20538;-51
2022/12/11 06:14:03;;;;;;;12.00;9.77;;;-2.30;99.90;;;;;;5016309;28;20580;-51
2022/12/11 06:16:29;;;;;;;9.13;8.23;;;-2.30;99.90;;;;;;5012682;28;21024;-50
2022/12/11 06:18:57;;;;;;;14.13;9.47;;;-2.30;99.90;;;;;;5010594;28;20467;-50
2022/12/11 06:21:25;;;;;;;14.03;9.07;;;-2.30;99.90;;;;;;5011266;28;20463;-50
2022/12/11 06:23:56;;;;;;;11.47;9.30;;;-2.30;99.90;;;;;;5009394;28;20500;-50
2022/12/11 06:26:23;;;;;;;11.43;8.53;;;-2.30;99.90;;;;;;5011534;28;20484;-51
2022/12/11 06:28:50;;;;;;;11.97;9.27;;;-2.20;99.90;;;;;;5005905;28;21007;-50
2022/12/11 06:31:18;;;;;;;9.70;8.63;;;-2.30;99.90;;;;;;5008917;28;20518;-51
2022/12/11 06:33:45;;;;;;;10.83;8.40;;;-2.30;99.90;;;;;;5016192;28;20500;-51
2022/12/11 06:36:14;;;;;;;10.87;8.13;;;-2.30;99.90;;;;;;5012731;28;20486;-50
2022/12/11 06:38:41;;;;;;;11.67;8.30;;;-2.30;99.90;;;;;;5011591;28;20985;-51
2022/12/11 06:41:08;;;;;;;10.17;7.70;;;-2.30;99.90;;;;;;5010930;28;20854;-52
2022/12/11 06:43:37;;;;;;;9.60;8.60;;;-2.30;99.90;;;;;;5003862;28;20491;-50
2022/12/11 06:46:05;;;;;;;10.97;8.97;;;-2.30;99.90;;;;;;5007911;28;20507;-50
2022/12/11 06:48:32;;;;;;;9.57;8.00;;;-2.40;99.90;;;;;;5010209;28;20953;-51
2022/12/11 06:50:59;;;;;;;9.60;8.27;;;-2.40;99.90;;;;;;5011531;28;20476;-51
2022/12/11 06:53:27;;;;;;;10.03;8.77;;;-2.40;99.90;;;;;;5009331;28;20595;-51
2022/12/11 06:55:53;;;;;;;8.43;7.53;;;-2.40;99.90;;;;;;5010046;28;21017;-50
2022/12/11 06:58:20;;;;;;;11.13;8.90;;;-2.30;99.90;;;;;;5011019;28;20542;-50
2022/12/11 07:00:46;;;;;;;9.33;7.63;;;-2.30;99.90;;;;;;5010740;28;20491;-50
2022/12/11 07:03:13;;;;;;;11.17;8.50;;;-2.30;99.90;;;;;;5008995;28;20464;-51
2022/12/11 07:05:40;;;;;;;9.17;8.27;;;-2.30;99.90;;;;;;5002081;28;21007;-51
2022/12/11 07:08:06;;;;;;;9.77;8.23;;;-2.30;99.90;;;;;;5009952;28;20460;-50
2022/12/11 07:10:34;;;;;;;10.43;8.30;;;-2.30;99.90;;;;;;5008614;28;20487;-51
2022/12/11 07:13:02;;;;;;;9.90;8.37;;;-2.30;99.90;;;;;;5009444;28;20980;-51
2022/12/11 07:15:28;;;;;;;12.00;8.87;;;-2.30;99.90;;;;;;5009007;28;20578;-51
2022/12/11 07:17:55;;;;;;;11.40;8.47;;;-2.30;99.90;;;;;;5009235;28;20915;-51
2022/12/11 07:20:21;;;;;;;9.17;8.10;;;-2.30;99.90;;;;;;5007546;28;20499;-51
2022/12/11 07:22:48;;;;;;;8.40;7.60;;;-2.20;99.90;;;;;;5006319;28;20935;-51
2022/12/11 07:25:15;;;;;;;11.40;9.10;;;-2.20;99.90;;;;;;5010412;28;20487;-51
2022/12/11 07:27:43;;;;;;;10.77;8.97;;;-2.30;99.90;;;;;;5009799;28;20491;-50
2022/12/11 07:30:10;;;;;;;9.40;8.40;;;-2.30;99.90;;;;;;5008869;28;20503;-50
2022/12/11 07:32:37;;;;;;;11.17;9.20;;;-2.30;99.90;;;;;;5008887;28;20456;-51
2022/12/11 07:35:04;;;;;;;10.13;8.90;;;-2.20;99.90;;;;;;5005840;28;21085;-51
2022/12/11 07:37:31;;;;;;;10.40;8.33;;;-2.20;99.90;;;;;;5006703;28;20490;-51
2022/12/11 07:39:57;;;;;;;17.20;11.63;;;-2.20;99.90;;;;;;5007396;28;20491;-51
2022/12/11 07:42:24;;;;;;;14.00;12.50;;;-2.20;99.90;;;;;;5010302;28;20488;-50
2022/12/11 07:44:52;;;;;;;10.00;8.93;;;-2.20;99.90;;;;;;5006217;28;20959;-52
2022/12/11 07:47:18;;;;;;;14.40;12.77;;;-2.20;99.90;;;;;;5005824;28;20584;-50
2022/12/11 07:49:45;;;;;;;14.13;9.90;;;-2.20;99.90;;;;;;5009495;28;20487;-52
2022/12/11 07:52:11;;;;;;;10.97;9.87;;;-2.30;99.90;;;;;;5009459;28;22488;-52
2022/12/11 07:54:38;;;;;;;15.97;12.23;;;-2.30;99.90;;;;;;5009554;28;20526;-50
2022/12/11 07:57:05;;;;;;;11.67;8.37;;;-2.30;99.90;;;;;;5007807;28;20507;-52
2022/12/11 07:59:32;;;;;;;14.23;9.13;;;-2.30;99.90;;;;;;5008586;28;20460;-51
2022/12/11 08:02:00;;;;;;;9.57;8.50;;;-2.20;99.90;;;;;;5006368;28;20491;-50
2022/12/11 08:04:26;;;;;;;10.37;9.20;;;-2.30;99.90;;;;;;5009426;28;20526;-50
2022/12/11 08:06:53;;;;;;;13.40;11.57;;;-2.30;99.90;;;;;;5009498;28;20492;-50
2022/12/11 08:09:21;;;;;;;9.80;8.77;;;-2.30;99.90;;;;;;5008530;28;20502;-52
2022/12/11 08:11:48;;;;;;;12.47;10.10;;;-2.20;99.90;;;;;;5011932;28;20835;-52
2022/12/11 08:14:15;;;;;;;19.97;16.60;;;-2.20;99.90;;;;;;5004461;28;20527;-52
2022/12/11 08:16:42;;;;;;;16.23;12.83;;;-2.20;99.90;;;;;;5004958;28;20464;-50
2022/12/11 08:19:11;;;;;;;12.70;9.93;;;-2.20;99.90;;;;;;5007421;28;20518;-51
2022/12/11 08:21:38;;;;;;;15.30;11.87;;;-2.20;99.90;;;;;;5006578;28;20499;-51
2022/12/11 08:24:04;;;;;;;12.67;9.77;;;-2.20;99.90;;;;;;5000886;28;20484;-51
2022/12/11 08:26:31;;;;;;;12.13;9.43;;;-2.10;99.90;;;;;;5005383;28;20490;-51
2022/12/11 08:28:59;;;;;;;16.53;11.17;;;-2.00;99.90;;;;;;5004812;28;20519;-52
2022/12/11 08:31:26;;;;;;;14.63;9.77;;;-1.90;99.90;;;;;;5011890;28;21031;-52
2022/12/11 08:33:54;;;;;;;11.17;9.97;;;-1.80;99.90;;;;;;5009989;28;20537;-52
2022/12/11 08:36:23;;;;;;;13.80;9.20;;;-1.80;99.90;;;;;;5008784;28;20463;-51
2022/12/11 08:38:50;;;;;;;10.77;9.33;;;-1.80;99.90;;;;;;5012499;28;21187;-52
2022/12/11 08:41:19;;;;;;;11.87;8.80;;;-1.90;99.90;;;;;;5008178;28;20824;-51
2022/12/11 08:43:47;;;;;;;12.30;9.60;;;-1.90;99.90;;;;;;5015521;28;20516;-52
2022/12/11 08:46:14;;;;;;;12.33;9.97;;;-1.90;99.90;;;;;;5018647;28;20541;-52
2022/12/11 08:48:42;;;;;;;12.53;8.73;;;-1.90;99.90;;;;;;5022486;28;20487;-52
2022/12/11 08:51:12;;;;;;;10.70;9.23;;;-1.90;99.90;;;;;;5016587;28;21161;-52
2022/12/11 08:53:41;;;;;;;12.67;8.93;;;-1.80;99.90;;;;;;5006321;28;20490;-52
2022/12/11 08:56:09;;;;;;;12.73;9.70;;;-1.80;99.90;;;;;;5017596;28;20471;-52
2022/12/11 08:58:36;;;;;;;10.90;8.87;;;-1.80;99.90;;;;;;5004111;28;20483;-52
2022/12/11 09:01:07;;;;;;;11.37;8.90;;;-1.80;99.90;;;;;;5009460;28;21050;-51
2022/12/11 09:03:34;;;;;;;12.53;9.97;;;-1.70;99.90;;;;;;5010049;28;20460;-51
2022/12/11 09:06:04;;;;;;;13.80;9.20;;;-1.60;99.90;;;;;;5007731;28;20510;-51
2022/12/11 09:08:30;;;;;;;10.43;9.33;;;-1.60;99.90;;;;;;5011878;28;20553;-51
2022/12/11 09:11:02;;;;;;;10.77;9.23;;;-1.70;99.90;;;;;;5008948;28;20518;-51
2022/12/11 09:13:29;;;;;;;11.17;8.10;;;-1.70;99.90;;;;;;5010260;28;20903;-52
2022/12/11 09:15:55;;;;;;;10.20;8.50;;;-1.70;99.90;;;;;;5011812;28;20514;-52
2022/12/11 09:18:22;;;;;;;11.00;9.20;;;-1.80;99.90;;;;;;5008376;28;20522;-52
2022/12/11 09:20:48;;;;;;;10.30;8.80;;;-1.70;99.90;;;;;;5011747;28;20518;-53
2022/12/11 09:23:15;;;;;;;11.60;9.50;;;-1.80;99.90;;;;;;5008872;28;20878;-52
2022/12/11 09:25:48;;;;;;;14.60;9.80;;;-1.70;99.90;;;;;;5010215;28;20526;-52
2022/12/11 09:28:16;;;;;;;10.47;8.53;;;-1.70;99.90;;;;;;5012576;28;20456;-51
2022/12/11 09:30:42;;;;;;;11.17;9.53;;;-1.70;99.90;;;;;;5010790;28;20550;-51
2022/12/11 09:33:09;;;;;;;15.50;10.57;;;-1.70;99.90;;;;;;5013493;28;20491;-52
2022/12/11 09:35:36;;;;;;;14.40;10.97;;;-1.70;99.90;;;;;;5013125;28;20495;-52
2022/12/11 09:38:03;;;;;;;11.00;9.87;;;-1.70;99.90;;;;;;5012840;28;20487;-52
2022/12/11 09:40:31;;;;;;;14.33;11.60;;;-1.70;99.90;;;;;;5013664;28;20471;-53
2022/12/11 09:43:03;;;;;;;14.27;11.73;;;-1.60;99.90;;;;;;5011961;28;20471;-53
2022/12/11 09:45:31;;;;;;;13.10;10.13;;;-1.60;99.90;;;;;;5008867;28;20626;-53
2022/12/11 09:47:59;;;;;;;11.20;9.63;;;-1.60;99.90;;;;;;5010890;28;21006;-52
2022/12/11 09:50:29;;;;;;;11.70;9.57;;;-1.50;99.90;;;;;;5006646;28;20461;-52
2022/12/11 09:53:04;;;;;;;12.47;9.13;;;-1.50;99.90;;;;;;5006831;28;21091;-52
2022/12/11 09:55:39;;;;;;;10.27;9.17;;;-1.60;99.90;;;;;;5011169;28;20479;-52
2022/12/11 09:58:13;;;;;;;14.13;11.00;;;-1.60;99.90;;;;;;5006197;28;20530;-51
2022/12/11 10:00:46;;;;;;;15.77;11.17;;;-1.60;99.90;;;;;;5013593;28;20519;-51
2022/12/11 10:03:50;;;;;;;11.73;10.10;;;-1.60;99.90;;;;;;5010744;28;20985;-52
2022/12/11 10:06:23;;;;;;;11.53;9.27;;;-1.60;99.90;;;;;;5008263;28;20471;-51
2022/12/11 10:08:59;;;;;;;12.80;10.77;;;-1.60;99.90;;;;;;5008762;28;20464;-52
2022/12/11 10:11:47;;;;;;;13.40;11.20;;;-1.50;99.90;;;;;;5011557;28;20935;-51
2022/12/11 10:14:24;;;;;;;11.70;9.50;;;-1.40;99.90;;;;;;5024821;28;20483;-51
2022/12/11 10:16:57;;;;;;;11.33;10.07;;;-1.50;99.90;;;;;;5003376;28;21009;-51
2022/12/11 10:19:27;;;;;;;10.60;8.70;;;-1.40;99.90;;;;;;5016197;28;20519;-51
2022/12/11 10:21:54;;;;;;;11.53;8.90;;;-1.60;99.90;;;;;;5013520;28;20868;-51
2022/12/11 10:24:29;;;;;;;10.40;8.90;;;-1.60;99.90;;;;;;5011935;28;20479;-51
2022/12/11 10:26:58;;;;;;;10.93;9.70;;;-1.40;99.90;;;;;;5015675;28;20995;-51
2022/12/11 10:29:24;;;;;;;11.70;9.70;;;-1.30;99.90;;;;;;5009530;28;20571;-51
2022/12/11 10:31:56;;;;;;;12.67;9.07;;;-1.00;99.90;;;;;;5009923;28;20467;-51
2022/12/11 10:34:34;;;;;;;12.47;9.80;;;-0.80;99.90;;;;;;5010120;28;20508;-51
2022/12/11 10:37:01;;;;;;;13.40;9.60;;;-0.70;99.90;;;;;;5005848;28;20491;-52
2022/12/11 10:39:29;;;;;;;9.63;8.53;;;-0.70;99.90;;;;;;5010258;28;20530;-52
2022/12/11 10:41:56;;;;;;;9.33;8.40;;;-0.70;99.90;;;;;;5015329;28;20467;-51
2022/12/11 10:44:25;;;;;;;10.27;9.07;;;-0.80;99.90;;;;;;5009087;28;20542;-51
2022/12/11 10:47:05;;;;;;;9.27;8.13;;;-0.70;99.90;;;;;;5021023;22;20510;-53
2022/12/11 10:49:34;;;;;;;40.93;25.53;;;-0.80;99.90;;;;;;5011659;28;20432;-53
2022/12/11 10:52:02;;;;;;;20.40;18.13;;;-0.80;99.90;;;;;;5010480;28;20503;-54
2022/12/11 10:54:32;;;;;;;14.53;11.87;;;-0.90;99.90;;;;;;5011269;28;20997;-54
2022/12/11 10:57:01;;;;;;;19.43;13.33;;;-0.80;99.90;;;;;;5010778;28;21063;-54
2022/12/11 10:59:33;;;;;;;33.57;23.03;;;-0.90;99.90;;;;;;4992065;28;20496;-54
2022/12/11 11:02:02;;;;;;;15.90;11.20;;;-0.70;99.90;;;;;;5004314;28;20542;-54
2022/12/11 11:04:33;;;;;;;15.77;11.50;;;-0.60;99.90;;;;;;4999861;28;20581;-55
2022/12/11 11:07:04;;;;;;;15.57;12.00;;;-0.50;99.90;;;;;;5007784;28;20514;-54
2022/12/11 11:09:34;;;;;;;33.10;27.20;;;-0.60;99.90;;;;;;4998169;28;20519;-54
2022/12/11 11:12:01;;;;;;;37.27;31.30;;;-0.50;99.90;;;;;;5003707;28;20518;-55
2022/12/11 11:14:28;;;;;;;14.77;13.37;;;-0.40;99.90;;;;;;5001510;28;20502;-54
2022/12/11 11:16:57;;;;;;;11.40;9.73;;;-0.30;99.90;;;;;;5008597;28;20514;-55
2022/12/11 11:19:29;;;;;;;11.27;8.63;;;-0.30;99.90;;;;;;4999709;28;20880;-54
2022/12/11 11:22:00;;;;;;;11.20;10.10;;;-0.50;99.90;;;;;;5001141;28;20483;-55
2022/12/11 11:24:30;;;;;;;11.70;9.90;;;-0.50;99.90;;;;;;5004110;28;20547;-54
2022/12/11 11:26:57;;;;;;;11.73;9.70;;;-0.80;99.90;;;;;;4993133;28;20578;-54
2022/12/11 11:29:31;;;;;;;10.57;8.93;;;-0.50;99.90;;;;;;5004481;28;20475;-54
2022/12/11 11:32:12;;;;;;;14.33;9.50;;;-0.40;99.90;;;;;;4999947;28;20544;-54
2022/12/11 11:34:40;;;;;;;15.00;10.30;;;-0.40;99.90;;;;;;5001012;28;20551;-54
2022/12/11 11:37:24;;;;;;;14.00;9.33;;;-0.50;99.90;;;;;;5000579;28;20618;-54
2022/12/11 11:39:55;;;;;;;12.00;10.07;;;-0.60;99.90;;;;;;4999542;28;20487;-55
2022/12/11 11:42:28;;;;;;;13.13;10.10;;;-0.80;99.90;;;;;;4997886;28;20542;-55
2022/12/11 11:45:03;;;;;;;13.83;10.20;;;-0.60;99.90;;;;;;5003588;28;20471;-55
2022/12/11 11:47:34;;;;;;;19.20;14.70;;;-0.50;99.90;;;;;;4998674;28;20499;-54
2022/12/11 11:50:08;;;;;;;13.23;9.83;;;-0.60;99.90;;;;;;4998216;28;20566;-54
2022/12/11 11:52:39;;;;;;;13.93;11.40;;;-0.50;99.90;;;;;;4996567;28;21004;-54
2022/12/11 11:55:13;;;;;;;13.93;12.53;;;-0.60;99.90;;;;;;5003471;28;21207;-55
2022/12/11 11:57:45;;;;;;;11.43;10.17;;;-0.50;99.90;;;;;;4998620;28;20582;-55
2022/12/11 12:00:19;;;;;;;31.70;25.17;;;-0.50;99.90;;;;;;4998128;28;21048;-54
2022/12/11 12:02:47;;;;;;;20.33;16.47;;;-0.70;99.90;;;;;;4997362;28;20586;-55
2022/12/11 12:05:22;;;;;;;17.80;13.60;;;-0.60;99.90;;;;;;4999925;28;20479;-53
2022/12/11 12:07:59;;;;;;;13.93;11.20;;;-0.60;99.90;;;;;;5002592;28;20495;-54
2022/12/11 12:10:34;;;;;;;16.20;13.83;;;-0.50;99.90;;;;;;4998694;28;20460;-55
2022/12/11 12:13:05;;;;;;;16.63;13.43;;;-0.50;99.90;;;;;;5001310;28;20558;-54
2022/12/11 12:15:40;;;;;;;13.80;8.90;;;-0.60;99.90;;;;;;4997290;28;20574;-51
2022/12/11 12:18:15;;;;;;;15.57;11.83;;;-0.50;99.90;;;;;;5000341;28;20510;-51
2022/12/11 12:20:50;;;;;;;14.10;11.10;;;-0.40;99.90;;;;;;5004838;28;20549;-51
2022/12/11 12:23:32;;;;;;;10.07;9.07;;;-0.60;99.90;;;;;;5001514;28;20541;-52
2022/12/11 12:26:05;;;;;;;10.77;9.43;;;-0.50;99.90;;;;;;5006680;28;21108;-50
2022/12/11 12:28:41;;;;;;;13.03;9.97;;;-0.50;99.90;;;;;;5003447;28;20497;-50
2022/12/11 12:31:23;;;;;;;11.53;9.33;;;-0.50;99.90;;;;;;5006528;28;20483;-51
2022/12/11 12:33:58;;;;;;;9.77;8.37;;;-0.60;99.90;;;;;;5002932;28;20545;-50
2022/12/11 12:36:32;;;;;;;87.03;44.23;;;-0.60;99.90;;;;;;5002437;28;20570;-51
2022/12/11 12:39:02;;;;;;;12.53;9.70;;;-0.50;99.90;;;;;;5004491;28;20566;-51
2022/12/11 12:41:41;;;;;;;16.73;12.80;;;-0.40;99.90;;;;;;5006651;28;20462;-51
2022/12/11 12:44:14;;;;;;;13.60;10.30;;;-0.40;99.90;;;;;;5004649;28;20462;-51
2022/12/11 12:46:51;;;;;;;14.73;10.40;;;-0.50;99.90;;;;;;5005928;28;20495;-49
2022/12/11 12:49:30;;;;;;;11.43;8.90;;;-0.60;99.90;;;;;;5002630;28;20502;-49
2022/12/11 12:51:59;;;;;;;12.60;10.67;;;-0.50;99.90;;;;;;5002426;28;20554;-49